sensor_id;sensor_type;location;lat;lon;timestamp;temperature;humidity
16929;DHT22;8581;47.334;11.190;2022-08-03T00:01:53;13.80;99.90
16929;DHT22;8581;47.334;11.190;2022-08-03T00:04:24;14.00;99.90
16929;DHT22;8581;47.334;11.190;2022-08-03T00:06:56;13.90;99.90
16929;DHT22;8581;47.334;11.190;2022-08-03T00:09:27;13.90;99.90
16929;DHT22;8581;47.334;11.190;2022-08-03T00:11:59;13.80;99.90
16929;DHT22;8581;47.334;11.190;2022-08-03T00:14:31;13.80;99.90
16929;DHT22;8581;47.334;11.190;2022-08-03T00:17:02;13.70;99.90
16929;DHT22;8581;47.334;11.190;2022-08-03T00:19:34;13.50;99.90
16929;DHT22;8581;47.334;11.190;2022-08-03T00:22:05;13.40;99.90
16929;DHT22;8581;47.334;11.190;2022-08-03T00:24:37;13.30;99.90
16929;DHT22;8581;47.334;11.190;2022-08-03T00:27:09;13.30;99.90
16929;DHT22;8581;47.334;11.190;2022-08-03T00:29:40;13.40;99.90
16929;DHT22;8581;47.334;11.190;2022-08-03T00:32:12;13.40;99.90
16929;DHT22;8581;47.334;11.190;2022-08-03T00:34:43;13.50;99.90
16929;DHT22;8581;47.334;11.190;2022-08-03T00:37:15;13.60;99.90
16929;DHT22;8581;47.334;11.190;2022-08-03T00:39:47;13.70;99.90
16929;DHT22;8581;47.334;11.190;2022-08-03T00:42:18;13.70;99.90
16929;DHT22;8581;47.334;11.190;2022-08-03T00:44:50;13.60;99.90
16929;DHT22;8581;47.334;11.190;2022-08-03T00:47:21;13.70;99.90
16929;DHT22;8581;47.334;11.190;2022-08-03T00:49:53;13.70;99.90
16929;DHT22;8581;47.334;11.190;2022-08-03T00:52:24;13.80;99.90
16929;DHT22;8581;47.334;11.190;2022-08-03T00:54:56;13.70;99.90
16929;DHT22;8581;47.334;11.190;2022-08-03T00:57:28;13.70;99.90
16929;DHT22;8581;47.334;11.190;2022-08-03T00:59:59;13.70;99.90
16929;DHT22;8581;47.334;11.190;2022-08-03T01:02:31;13.70;99.90
16929;DHT22;8581;47.334;11.190;2022-08-03T01:05:03;13.50;99.90
16929;DHT22;8581;47.334;11.190;2022-08-03T01:08:27;13.60;99.90
16929;DHT22;8581;47.334;11.190;2022-08-03T01:10:53;13.50;99.90
16929;DHT22;8581;47.334;11.190;2022-08-03T01:13:35;13.40;99.90
16929;DHT22;8581;47.334;11.190;2022-08-03T01:16:18;13.40;99.90
16929;DHT22;8581;47.334;11.190;2022-08-03T01:18:54;13.30;99.90
16929;DHT22;8581;47.334;11.190;2022-08-03T01:21:28;13.20;99.90
16929;DHT22;8581;47.334;11.190;2022-08-03T01:24:11;13.30;99.90
16929;DHT22;8581;47.334;11.190;2022-08-03T01:29:38;13.20;99.90
16929;DHT22;8581;47.334;11.190;2022-08-03T01:32:10;13.20;99.90
16929;DHT22;8581;47.334;11.190;2022-08-03T01:34:42;13.00;99.90
16929;DHT22;8581;47.334;11.190;2022-08-03T01:37:12;13.00;99.90
16929;DHT22;8581;47.334;11.190;2022-08-03T01:39:43;12.90;99.90
16929;DHT22;8581;47.334;11.190;2022-08-03T01:42:15;12.90;99.90
16929;DHT22;8581;47.334;11.190;2022-08-03T01:44:47;12.90;99.90
16929;DHT22;8581;47.334;11.190;2022-08-03T01:47:19;12.90;99.90
16929;DHT22;8581;47.334;11.190;2022-08-03T01:49:51;12.80;99.90
16929;DHT22;8581;47.334;11.190;2022-08-03T01:52:22;12.90;99.90
16929;DHT22;8581;47.334;11.190;2022-08-03T01:54:54;13.00;99.90
16929;DHT22;8581;47.334;11.190;2022-08-03T01:57:26;13.00;99.90
16929;DHT22;8581;47.334;11.190;2022-08-03T01:59:58;13.00;99.90
16929;DHT22;8581;47.334;11.190;2022-08-03T02:02:29;13.20;99.90
16929;DHT22;8581;47.334;11.190;2022-08-03T02:05:00;13.10;99.90
16929;DHT22;8581;47.334;11.190;2022-08-03T02:07:32;13.00;99.90
16929;DHT22;8581;47.334;11.190;2022-08-03T02:10:05;12.80;99.90
16929;DHT22;8581;47.334;11.190;2022-08-03T02:12:36;12.90;99.90
16929;DHT22;8581;47.334;11.190;2022-08-03T02:15:08;12.70;99.90
16929;DHT22;8581;47.334;11.190;2022-08-03T02:17:39;12.60;99.90
16929;DHT22;8581;47.334;11.190;2022-08-03T02:20:11;12.50;99.90
16929;DHT22;8581;47.334;11.190;2022-08-03T02:22:43;12.60;99.90
16929;DHT22;8581;47.334;11.190;2022-08-03T02:25:14;12.70;99.90
16929;DHT22;8581;47.334;11.190;2022-08-03T02:27:50;12.70;99.90
16929;DHT22;8581;47.334;11.190;2022-08-03T02:30:19;13.00;99.90
16929;DHT22;8581;47.334;11.190;2022-08-03T02:32:53;13.00;99.90
16929;DHT22;8581;47.334;11.190;2022-08-03T02:35:23;12.90;99.90
16929;DHT22;8581;47.334;11.190;2022-08-03T02:37:57;12.90;99.90
16929;DHT22;8581;47.334;11.190;2022-08-03T02:40:27;12.90;99.90
16929;DHT22;8581;47.334;11.190;2022-08-03T02:42:59;13.00;99.90
16929;DHT22;8581;47.334;11.190;2022-08-03T02:45:30;13.00;99.90
16929;DHT22;8581;47.334;11.190;2022-08-03T02:48:02;12.80;99.90
16929;DHT22;8581;47.334;11.190;2022-08-03T02:50:33;12.70;99.90
16929;DHT22;8581;47.334;11.190;2022-08-03T02:53:05;12.60;99.90
16929;DHT22;8581;47.334;11.190;2022-08-03T02:55:37;12.60;99.90
16929;DHT22;8581;47.334;11.190;2022-08-03T02:58:08;12.80;99.90
16929;DHT22;8581;47.334;11.190;2022-08-03T03:00:40;12.80;99.90
16929;DHT22;8581;47.334;11.190;2022-08-03T03:03:11;12.80;99.90
16929;DHT22;8581;47.334;11.190;2022-08-03T03:05:43;12.90;99.90
16929;DHT22;8581;47.334;11.190;2022-08-03T03:08:15;12.90;99.90
16929;DHT22;8581;47.334;11.190;2022-08-03T03:10:46;13.00;99.90
16929;DHT22;8581;47.334;11.190;2022-08-03T03:13:18;13.00;99.90
16929;DHT22;8581;47.334;11.190;2022-08-03T03:15:49;12.90;99.90
16929;DHT22;8581;47.334;11.190;2022-08-03T03:18:21;12.80;99.90
16929;DHT22;8581;47.334;11.190;2022-08-03T03:20:53;12.70;99.90
16929;DHT22;8581;47.334;11.190;2022-08-03T03:23:24;12.70;99.90
16929;DHT22;8581;47.334;11.190;2022-08-03T03:25:56;12.70;99.90
16929;DHT22;8581;47.334;11.190;2022-08-03T03:28:27;12.70;99.90
16929;DHT22;8581;47.334;11.190;2022-08-03T03:30:59;12.80;99.90
16929;DHT22;8581;47.334;11.190;2022-08-03T03:33:31;12.70;99.90
16929;DHT22;8581;47.334;11.190;2022-08-03T03:36:03;12.70;99.90
16929;DHT22;8581;47.334;11.190;2022-08-03T03:38:35;12.60;99.90
16929;DHT22;8581;47.334;11.190;2022-08-03T03:41:06;12.60;99.90
16929;DHT22;8581;47.334;11.190;2022-08-03T03:43:37;12.50;99.90
16929;DHT22;8581;47.334;11.190;2022-08-03T03:46:11;12.40;99.90
16929;DHT22;8581;47.334;11.190;2022-08-03T03:48:41;12.30;99.90
16929;DHT22;8581;47.334;11.190;2022-08-03T03:51:12;12.40;99.90
16929;DHT22;8581;47.334;11.190;2022-08-03T03:54:00;12.30;99.90
16929;DHT22;8581;47.334;11.190;2022-08-03T03:56:31;12.20;99.90
16929;DHT22;8581;47.334;11.190;2022-08-03T03:59:03;12.30;99.90
16929;DHT22;8581;47.334;11.190;2022-08-03T04:01:34;12.40;99.90
16929;DHT22;8581;47.334;11.190;2022-08-03T04:04:06;12.50;99.90
16929;DHT22;8581;47.334;11.190;2022-08-03T04:06:43;12.50;99.90
16929;DHT22;8581;47.334;11.190;2022-08-03T04:09:20;12.40;99.90
16929;DHT22;8581;47.334;11.190;2022-08-03T04:11:58;12.30;99.90
16929;DHT22;8581;47.334;11.190;2022-08-03T04:14:31;12.40;99.90
16929;DHT22;8581;47.334;11.190;2022-08-03T04:17:02;12.40;99.90
16929;DHT22;8581;47.334;11.190;2022-08-03T04:19:35;12.40;99.90
16929;DHT22;8581;47.334;11.190;2022-08-03T04:22:08;12.40;99.90
16929;DHT22;8581;47.334;11.190;2022-08-03T04:24:42;12.40;99.90
16929;DHT22;8581;47.334;11.190;2022-08-03T04:27:13;12.30;99.90
16929;DHT22;8581;47.334;11.190;2022-08-03T04:29:45;12.30;99.90
16929;DHT22;8581;47.334;11.190;2022-08-03T04:32:15;12.40;99.90
16929;DHT22;8581;47.334;11.190;2022-08-03T04:34:47;12.40;99.90
16929;DHT22;8581;47.334;11.190;2022-08-03T04:37:23;12.50;99.90
16929;DHT22;8581;47.334;11.190;2022-08-03T04:39:53;12.40;99.90
16929;DHT22;8581;47.334;11.190;2022-08-03T04:42:24;12.50;99.90
16929;DHT22;8581;47.334;11.190;2022-08-03T04:44:56;12.40;99.90
16929;DHT22;8581;47.334;11.190;2022-08-03T04:47:28;12.40;99.90
16929;DHT22;8581;47.334;11.190;2022-08-03T04:50:00;12.40;99.90
16929;DHT22;8581;47.334;11.190;2022-08-03T04:52:32;12.50;99.90
16929;DHT22;8581;47.334;11.190;2022-08-03T04:55:03;12.50;99.90
16929;DHT22;8581;47.334;11.190;2022-08-03T04:57:35;12.60;99.90
16929;DHT22;8581;47.334;11.190;2022-08-03T05:00:07;12.80;99.90
16929;DHT22;8581;47.334;11.190;2022-08-03T05:02:39;12.80;99.90
16929;DHT22;8581;47.334;11.190;2022-08-03T05:05:11;12.80;99.90
16929;DHT22;8581;47.334;11.190;2022-08-03T05:07:42;12.70;99.90
16929;DHT22;8581;47.334;11.190;2022-08-03T05:10:14;12.80;99.90
16929;DHT22;8581;47.334;11.190;2022-08-03T05:12:47;12.90;99.90
16929;DHT22;8581;47.334;11.190;2022-08-03T05:15:17;12.90;99.90
16929;DHT22;8581;47.334;11.190;2022-08-03T05:17:49;13.00;99.90
16929;DHT22;8581;47.334;11.190;2022-08-03T05:20:20;12.80;99.90
16929;DHT22;8581;47.334;11.190;2022-08-03T05:22:52;12.80;99.90
16929;DHT22;8581;47.334;11.190;2022-08-03T05:25:24;12.90;99.90
16929;DHT22;8581;47.334;11.190;2022-08-03T05:27:55;12.90;99.90
16929;DHT22;8581;47.334;11.190;2022-08-03T05:30:27;13.10;99.90
16929;DHT22;8581;47.334;11.190;2022-08-03T05:32:59;13.30;99.90
16929;DHT22;8581;47.334;11.190;2022-08-03T05:35:31;13.40;99.90
16929;DHT22;8581;47.334;11.190;2022-08-03T05:38:02;13.50;99.90
16929;DHT22;8581;47.334;11.190;2022-08-03T05:40:34;13.70;99.90
16929;DHT22;8581;47.334;11.190;2022-08-03T05:43:05;13.80;99.90
16929;DHT22;8581;47.334;11.190;2022-08-03T05:45:37;14.10;99.90
16929;DHT22;8581;47.334;11.190;2022-08-03T05:48:09;14.30;99.90
16929;DHT22;8581;47.334;11.190;2022-08-03T05:50:40;14.60;99.90
16929;DHT22;8581;47.334;11.190;2022-08-03T05:53:13;15.00;99.90
16929;DHT22;8581;47.334;11.190;2022-08-03T05:55:45;15.00;99.90
16929;DHT22;8581;47.334;11.190;2022-08-03T05:58:17;15.10;99.90
16929;DHT22;8581;47.334;11.190;2022-08-03T06:00:49;15.20;99.90
16929;DHT22;8581;47.334;11.190;2022-08-03T06:03:21;15.40;99.90
16929;DHT22;8581;47.334;11.190;2022-08-03T06:05:52;15.60;99.90
16929;DHT22;8581;47.334;11.190;2022-08-03T06:08:24;15.70;99.90
16929;DHT22;8581;47.334;11.190;2022-08-03T06:10:55;15.80;99.90
16929;DHT22;8581;47.334;11.190;2022-08-03T06:13:27;15.90;99.90
16929;DHT22;8581;47.334;11.190;2022-08-03T06:15:59;16.00;99.90
16929;DHT22;8581;47.334;11.190;2022-08-03T06:18:30;16.20;99.90
16929;DHT22;8581;47.334;11.190;2022-08-03T06:21:02;16.30;99.90
16929;DHT22;8581;47.334;11.190;2022-08-03T06:23:34;16.40;99.90
16929;DHT22;8581;47.334;11.190;2022-08-03T06:26:05;16.50;99.90
16929;DHT22;8581;47.334;11.190;2022-08-03T06:28:37;16.50;99.90
16929;DHT22;8581;47.334;11.190;2022-08-03T06:31:08;16.50;99.90
16929;DHT22;8581;47.334;11.190;2022-08-03T06:33:40;16.60;99.90
16929;DHT22;8581;47.334;11.190;2022-08-03T06:36:12;16.70;99.90
16929;DHT22;8581;47.334;11.190;2022-08-03T06:38:43;16.70;99.90
16929;DHT22;8581;47.334;11.190;2022-08-03T06:41:15;16.80;99.90
16929;DHT22;8581;47.334;11.190;2022-08-03T06:43:46;17.10;99.90
16929;DHT22;8581;47.334;11.190;2022-08-03T06:46:18;17.10;99.90
16929;DHT22;8581;47.334;11.190;2022-08-03T06:48:50;17.30;99.90
16929;DHT22;8581;47.334;11.190;2022-08-03T06:51:21;17.30;99.90
16929;DHT22;8581;47.334;11.190;2022-08-03T06:53:53;17.40;99.90
16929;DHT22;8581;47.334;11.190;2022-08-03T06:56:24;17.50;99.90
16929;DHT22;8581;47.334;11.190;2022-08-03T06:58:56;17.70;99.90
16929;DHT22;8581;47.334;11.190;2022-08-03T07:01:28;17.90;99.90
16929;DHT22;8581;47.334;11.190;2022-08-03T07:03:59;17.90;99.90
16929;DHT22;8581;47.334;11.190;2022-08-03T07:06:31;18.10;99.90
16929;DHT22;8581;47.334;11.190;2022-08-03T07:09:02;18.10;99.90
16929;DHT22;8581;47.334;11.190;2022-08-03T07:11:34;18.10;99.90
16929;DHT22;8581;47.334;11.190;2022-08-03T07:14:06;18.10;99.90
16929;DHT22;8581;47.334;11.190;2022-08-03T07:16:37;18.30;99.90
16929;DHT22;8581;47.334;11.190;2022-08-03T07:19:09;18.30;99.90
16929;DHT22;8581;47.334;11.190;2022-08-03T07:21:40;18.50;99.90
16929;DHT22;8581;47.334;11.190;2022-08-03T07:24:12;18.40;99.90
16929;DHT22;8581;47.334;11.190;2022-08-03T07:26:44;18.50;99.90
16929;DHT22;8581;47.334;11.190;2022-08-03T07:29:15;18.80;99.90
16929;DHT22;8581;47.334;11.190;2022-08-03T07:31:47;18.90;99.90
16929;DHT22;8581;47.334;11.190;2022-08-03T07:34:18;18.90;99.90
16929;DHT22;8581;47.334;11.190;2022-08-03T07:36:50;18.90;99.90
16929;DHT22;8581;47.334;11.190;2022-08-03T07:39:22;19.00;99.90
16929;DHT22;8581;47.334;11.190;2022-08-03T07:41:53;19.10;99.90
16929;DHT22;8581;47.334;11.190;2022-08-03T07:44:25;19.10;99.90
16929;DHT22;8581;47.334;11.190;2022-08-03T07:46:56;19.00;99.90
16929;DHT22;8581;47.334;11.190;2022-08-03T07:49:28;19.10;99.90
16929;DHT22;8581;47.334;11.190;2022-08-03T07:52:04;19.30;99.90
16929;DHT22;8581;47.334;11.190;2022-08-03T07:54:42;19.40;99.90
16929;DHT22;8581;47.334;11.190;2022-08-03T07:57:14;19.50;99.90
16929;DHT22;8581;47.334;11.190;2022-08-03T07:59:45;19.60;99.90
16929;DHT22;8581;47.334;11.190;2022-08-03T08:02:17;19.50;99.90
16929;DHT22;8581;47.334;11.190;2022-08-03T08:04:49;19.80;99.90
16929;DHT22;8581;47.334;11.190;2022-08-03T08:07:20;20.00;99.90
16929;DHT22;8581;47.334;11.190;2022-08-03T08:09:52;19.80;99.90
16929;DHT22;8581;47.334;11.190;2022-08-03T08:12:23;20.00;99.90
16929;DHT22;8581;47.334;11.190;2022-08-03T08:14:55;20.00;99.90
16929;DHT22;8581;47.334;11.190;2022-08-03T08:17:27;20.10;99.90
16929;DHT22;8581;47.334;11.190;2022-08-03T08:19:58;20.10;99.90
16929;DHT22;8581;47.334;11.190;2022-08-03T08:22:30;20.20;99.90
16929;DHT22;8581;47.334;11.190;2022-08-03T08:25:02;20.30;99.90
16929;DHT22;8581;47.334;11.190;2022-08-03T08:27:39;20.50;99.90
16929;DHT22;8581;47.334;11.190;2022-08-03T08:30:05;20.50;99.90
16929;DHT22;8581;47.334;11.190;2022-08-03T08:32:37;20.60;99.90
16929;DHT22;8581;47.334;11.190;2022-08-03T08:35:09;20.70;99.90
16929;DHT22;8581;47.334;11.190;2022-08-03T08:37:41;20.90;99.90
16929;DHT22;8581;47.334;11.190;2022-08-03T08:40:12;21.10;99.90
16929;DHT22;8581;47.334;11.190;2022-08-03T08:42:44;21.10;99.90
16929;DHT22;8581;47.334;11.190;2022-08-03T08:45:15;21.20;99.90
16929;DHT22;8581;47.334;11.190;2022-08-03T08:47:48;21.30;99.90
16929;DHT22;8581;47.334;11.190;2022-08-03T08:50:19;21.30;99.90
16929;DHT22;8581;47.334;11.190;2022-08-03T08:52:50;21.40;99.90
16929;DHT22;8581;47.334;11.190;2022-08-03T08:55:22;21.50;99.90
16929;DHT22;8581;47.334;11.190;2022-08-03T08:57:58;21.70;99.90
16929;DHT22;8581;47.334;11.190;2022-08-03T09:00:29;21.90;99.90
16929;DHT22;8581;47.334;11.190;2022-08-03T09:03:01;22.20;99.90
16929;DHT22;8581;47.334;11.190;2022-08-03T09:05:33;22.20;99.90
16929;DHT22;8581;47.334;11.190;2022-08-03T09:08:04;22.30;99.90
16929;DHT22;8581;47.334;11.190;2022-08-03T09:10:36;22.50;99.90
16929;DHT22;8581;47.334;11.190;2022-08-03T09:13:07;22.70;99.90
16929;DHT22;8581;47.334;11.190;2022-08-03T09:15:39;22.60;99.90
16929;DHT22;8581;47.334;11.190;2022-08-03T09:18:11;22.80;99.90
16929;DHT22;8581;47.334;11.190;2022-08-03T09:20:42;22.90;99.90
16929;DHT22;8581;47.334;11.190;2022-08-03T09:23:14;22.90;99.90
16929;DHT22;8581;47.334;11.190;2022-08-03T09:25:46;23.00;99.90
16929;DHT22;8581;47.334;11.190;2022-08-03T09:28:17;23.20;99.90
16929;DHT22;8581;47.334;11.190;2022-08-03T09:30:57;23.20;99.90
16929;DHT22;8581;47.334;11.190;2022-08-03T09:33:29;23.10;99.90
16929;DHT22;8581;47.334;11.190;2022-08-03T09:36:00;23.10;99.90
16929;DHT22;8581;47.334;11.190;2022-08-03T09:38:31;23.50;99.90
16929;DHT22;8581;47.334;11.190;2022-08-03T09:41:03;23.90;99.90
16929;DHT22;8581;47.334;11.190;2022-08-03T09:43:44;24.30;99.90
16929;DHT22;8581;47.334;11.190;2022-08-03T09:46:06;25.10;99.90
16929;DHT22;8581;47.334;11.190;2022-08-03T09:48:38;25.70;99.90
16929;DHT22;8581;47.334;11.190;2022-08-03T09:51:09;26.50;99.90
16929;DHT22;8581;47.334;11.190;2022-08-03T09:53:43;27.10;99.90
16929;DHT22;8581;47.334;11.190;2022-08-03T09:56:14;27.80;99.90
16929;DHT22;8581;47.334;11.190;2022-08-03T09:58:45;28.10;99.90
16929;DHT22;8581;47.334;11.190;2022-08-03T10:01:17;28.80;99.90
16929;DHT22;8581;47.334;11.190;2022-08-03T10:03:49;29.70;99.90
16929;DHT22;8581;47.334;11.190;2022-08-03T10:06:20;30.10;99.90
16929;DHT22;8581;47.334;11.190;2022-08-03T10:09:14;30.30;97.40
16929;DHT22;8581;47.334;11.190;2022-08-03T10:11:45;30.50;96.60
16929;DHT22;8581;47.334;11.190;2022-08-03T10:14:17;31.20;99.30
16929;DHT22;8581;47.334;11.190;2022-08-03T10:16:49;31.70;97.50
16929;DHT22;8581;47.334;11.190;2022-08-03T10:19:21;32.50;97.80
16929;DHT22;8581;47.334;11.190;2022-08-03T10:21:54;32.40;94.10
16929;DHT22;8581;47.334;11.190;2022-08-03T10:24:27;33.30;94.90
16929;DHT22;8581;47.334;11.190;2022-08-03T10:27:03;33.40;92.80
16929;DHT22;8581;47.334;11.190;2022-08-03T10:29:37;34.20;93.40
16929;DHT22;8581;47.334;11.190;2022-08-03T10:32:13;34.40;89.40
16929;DHT22;8581;47.334;11.190;2022-08-03T10:34:41;34.20;85.40
16929;DHT22;8581;47.334;11.190;2022-08-03T10:37:13;34.10;85.40
16929;DHT22;8581;47.334;11.190;2022-08-03T10:39:44;34.20;84.40
16929;DHT22;8581;47.334;11.190;2022-08-03T10:42:23;34.30;83.30
16929;DHT22;8581;47.334;11.190;2022-08-03T10:45:03;34.50;80.20
16929;DHT22;8581;47.334;11.190;2022-08-03T10:47:35;35.00;81.20
16929;DHT22;8581;47.334;11.190;2022-08-03T10:50:07;35.40;77.90
16929;DHT22;8581;47.334;11.190;2022-08-03T10:52:54;37.10;83.10
16929;DHT22;8581;47.334;11.190;2022-08-03T10:55:29;36.60;74.20
16929;DHT22;8581;47.334;11.190;2022-08-03T10:58:05;37.50;83.60
16929;DHT22;8581;47.334;11.190;2022-08-03T11:00:47;36.60;73.90
16929;DHT22;8581;47.334;11.190;2022-08-03T11:03:10;38.00;75.60
16929;DHT22;8581;47.334;11.190;2022-08-03T11:05:43;38.00;71.90
16929;DHT22;8581;47.334;11.190;2022-08-03T11:08:17;38.10;71.10
16929;DHT22;8581;47.334;11.190;2022-08-03T11:10:48;38.10;69.50
16929;DHT22;8581;47.334;11.190;2022-08-03T11:13:21;38.20;73.40
16929;DHT22;8581;47.334;11.190;2022-08-03T11:15:52;38.50;70.20
16929;DHT22;8581;47.334;11.190;2022-08-03T11:18:22;38.80;76.50
16929;DHT22;8581;47.334;11.190;2022-08-03T11:20:57;38.70;66.50
16929;DHT22;8581;47.334;11.190;2022-08-03T11:23:39;38.60;68.20
16929;DHT22;8581;47.334;11.190;2022-08-03T11:26:16;37.90;64.70
16929;DHT22;8581;47.334;11.190;2022-08-03T11:28:47;38.00;64.30
16929;DHT22;8581;47.334;11.190;2022-08-03T11:31:43;38.50;64.90
16929;DHT22;8581;47.334;11.190;2022-08-03T11:34:15;39.30;74.10
16929;DHT22;8581;47.334;11.190;2022-08-03T11:39:44;39.20;67.10
16929;DHT22;8581;47.334;11.190;2022-08-03T11:42:37;40.60;61.30
16929;DHT22;8581;47.334;11.190;2022-08-03T11:45:08;40.90;64.80
16929;DHT22;8581;47.334;11.190;2022-08-03T11:47:40;40.40;63.80
16929;DHT22;8581;47.334;11.190;2022-08-03T11:50:12;39.70;68.30
16929;DHT22;8581;47.334;11.190;2022-08-03T11:52:43;39.70;67.20
16929;DHT22;8581;47.334;11.190;2022-08-03T11:55:16;41.30;64.30
16929;DHT22;8581;47.334;11.190;2022-08-03T11:57:47;41.40;58.50
16929;DHT22;8581;47.334;11.190;2022-08-03T12:00:25;41.30;57.30
16929;DHT22;8581;47.334;11.190;2022-08-03T12:02:58;41.60;57.90
16929;DHT22;8581;47.334;11.190;2022-08-03T12:05:32;41.10;57.70
16929;DHT22;8581;47.334;11.190;2022-08-03T12:08:03;41.80;62.10
16929;DHT22;8581;47.334;11.190;2022-08-03T12:10:35;41.70;56.10
16929;DHT22;8581;47.334;11.190;2022-08-03T12:13:06;42.30;58.10
16929;DHT22;8581;47.334;11.190;2022-08-03T12:15:39;41.70;56.70
16929;DHT22;8581;47.334;11.190;2022-08-03T12:18:13;39.90;60.50
16929;DHT22;8581;47.334;11.190;2022-08-03T12:20:44;40.00;57.80
16929;DHT22;8581;47.334;11.190;2022-08-03T12:23:15;40.20;58.90
16929;DHT22;8581;47.334;11.190;2022-08-03T12:25:47;41.70;56.50
16929;DHT22;8581;47.334;11.190;2022-08-03T12:28:19;43.00;56.50
16929;DHT22;8581;47.334;11.190;2022-08-03T12:30:50;43.70;55.40
16929;DHT22;8581;47.334;11.190;2022-08-03T12:33:25;44.60;55.60
16929;DHT22;8581;47.334;11.190;2022-08-03T12:36:01;44.70;54.60
16929;DHT22;8581;47.334;11.190;2022-08-03T12:38:32;46.00;54.20
16929;DHT22;8581;47.334;11.190;2022-08-03T12:41:05;45.90;56.80
16929;DHT22;8581;47.334;11.190;2022-08-03T12:43:36;45.30;52.80
16929;DHT22;8581;47.334;11.190;2022-08-03T12:46:11;45.00;55.10
16929;DHT22;8581;47.334;11.190;2022-08-03T12:51:25;42.90;54.20
16929;DHT22;8581;47.334;11.190;2022-08-03T12:53:57;43.40;58.60
16929;DHT22;8581;47.334;11.190;2022-08-03T12:56:28;44.70;58.70
16929;DHT22;8581;47.334;11.190;2022-08-03T12:59:00;44.80;54.10
16929;DHT22;8581;47.334;11.190;2022-08-03T13:01:35;45.10;54.30
16929;DHT22;8581;47.334;11.190;2022-08-03T13:04:07;44.30;55.10
16929;DHT22;8581;47.334;11.190;2022-08-03T13:06:38;43.00;54.60
16929;DHT22;8581;47.334;11.190;2022-08-03T13:09:10;42.40;58.00
16929;DHT22;8581;47.334;11.190;2022-08-03T13:11:42;41.80;56.40
16929;DHT22;8581;47.334;11.190;2022-08-03T13:14:13;40.70;59.00
16929;DHT22;8581;47.334;11.190;2022-08-03T13:16:45;40.60;59.00
16929;DHT22;8581;47.334;11.190;2022-08-03T13:19:16;42.10;57.70
16929;DHT22;8581;47.334;11.190;2022-08-03T13:21:48;43.70;56.50
16929;DHT22;8581;47.334;11.190;2022-08-03T13:24:20;43.10;56.50
16929;DHT22;8581;47.334;11.190;2022-08-03T13:26:51;43.70;53.20
16929;DHT22;8581;47.334;11.190;2022-08-03T13:29:23;42.40;58.80
16929;DHT22;8581;47.334;11.190;2022-08-03T13:31:54;42.90;57.60
16929;DHT22;8581;47.334;11.190;2022-08-03T13:34:26;43.20;55.80
16929;DHT22;8581;47.334;11.190;2022-08-03T13:36:58;43.30;56.30
16929;DHT22;8581;47.334;11.190;2022-08-03T13:39:29;43.90;54.60
16929;DHT22;8581;47.334;11.190;2022-08-03T13:42:01;44.10;57.60
16929;DHT22;8581;47.334;11.190;2022-08-03T13:44:32;45.90;52.30
16929;DHT22;8581;47.334;11.190;2022-08-03T13:47:04;45.90;54.20
16929;DHT22;8581;47.334;11.190;2022-08-03T13:49:36;45.90;53.50
16929;DHT22;8581;47.334;11.190;2022-08-03T13:52:07;45.10;52.80
16929;DHT22;8581;47.334;11.190;2022-08-03T13:54:39;43.90;55.00
16929;DHT22;8581;47.334;11.190;2022-08-03T13:57:10;44.50;53.20
16929;DHT22;8581;47.334;11.190;2022-08-03T13:59:42;44.20;54.70
16929;DHT22;8581;47.334;11.190;2022-08-03T14:02:14;44.40;54.60
16929;DHT22;8581;47.334;11.190;2022-08-03T14:04:45;44.80;54.50
16929;DHT22;8581;47.334;11.190;2022-08-03T14:07:17;45.10;55.20
16929;DHT22;8581;47.334;11.190;2022-08-03T14:09:49;44.00;53.40
16929;DHT22;8581;47.334;11.190;2022-08-03T14:12:20;44.40;56.00
16929;DHT22;8581;47.334;11.190;2022-08-03T14:14:52;44.50;54.20
16929;DHT22;8581;47.334;11.190;2022-08-03T14:17:23;44.20;54.40
16929;DHT22;8581;47.334;11.190;2022-08-03T14:19:55;43.60;55.90
16929;DHT22;8581;47.334;11.190;2022-08-03T14:22:27;43.70;54.40
16929;DHT22;8581;47.334;11.190;2022-08-03T14:24:58;42.40;57.20
16929;DHT22;8581;47.334;11.190;2022-08-03T14:27:30;42.50;56.00
16929;DHT22;8581;47.334;11.190;2022-08-03T14:30:02;41.80;57.50
16929;DHT22;8581;47.334;11.190;2022-08-03T14:32:33;41.50;58.20
16929;DHT22;8581;47.334;11.190;2022-08-03T14:35:05;41.30;58.80
16929;DHT22;8581;47.334;11.190;2022-08-03T14:37:37;41.20;58.60
16929;DHT22;8581;47.334;11.190;2022-08-03T14:40:08;42.00;59.40
16929;DHT22;8581;47.334;11.190;2022-08-03T14:42:40;42.40;58.80
16929;DHT22;8581;47.334;11.190;2022-08-03T14:45:12;42.90;57.60
16929;DHT22;8581;47.334;11.190;2022-08-03T14:47:43;42.20;58.90
16929;DHT22;8581;47.334;11.190;2022-08-03T14:50:15;42.20;58.00
16929;DHT22;8581;47.334;11.190;2022-08-03T14:52:46;43.30;58.00
16929;DHT22;8581;47.334;11.190;2022-08-03T14:55:18;42.60;58.30
16929;DHT22;8581;47.334;11.190;2022-08-03T14:57:50;43.90;57.30
16929;DHT22;8581;47.334;11.190;2022-08-03T15:00:21;43.70;56.80
16929;DHT22;8581;47.334;11.190;2022-08-03T15:02:53;44.70;55.30
16929;DHT22;8581;47.334;11.190;2022-08-03T15:05:24;43.30;57.10
16929;DHT22;8581;47.334;11.190;2022-08-03T15:07:56;42.40;58.60
16929;DHT22;8581;47.334;11.190;2022-08-03T15:10:28;42.90;57.00
16929;DHT22;8581;47.334;11.190;2022-08-03T15:12:59;43.00;57.90
16929;DHT22;8581;47.334;11.190;2022-08-03T15:15:31;43.10;58.00
16929;DHT22;8581;47.334;11.190;2022-08-03T15:18:02;43.80;57.20
16929;DHT22;8581;47.334;11.190;2022-08-03T15:20:34;44.50;56.50
16929;DHT22;8581;47.334;11.190;2022-08-03T15:23:06;44.10;57.90
16929;DHT22;8581;47.334;11.190;2022-08-03T15:25:37;43.90;58.40
16929;DHT22;8581;47.334;11.190;2022-08-03T15:28:09;43.90;58.90
16929;DHT22;8581;47.334;11.190;2022-08-03T15:30:40;43.60;58.80
16929;DHT22;8581;47.334;11.190;2022-08-03T15:33:12;43.40;58.60
16929;DHT22;8581;47.334;11.190;2022-08-03T15:35:44;42.10;60.00
16929;DHT22;8581;47.334;11.190;2022-08-03T15:38:15;42.00;59.90
16929;DHT22;8581;47.334;11.190;2022-08-03T15:40:47;42.30;59.40
16929;DHT22;8581;47.334;11.190;2022-08-03T15:43:19;42.10;58.90
16929;DHT22;8581;47.334;11.190;2022-08-03T15:45:50;41.60;60.80
16929;DHT22;8581;47.334;11.190;2022-08-03T15:48:22;41.60;59.20
16929;DHT22;8581;47.334;11.190;2022-08-03T15:50:53;42.10;59.20
16929;DHT22;8581;47.334;11.190;2022-08-03T15:53:25;42.00;60.10
16929;DHT22;8581;47.334;11.190;2022-08-03T15:55:57;41.90;58.50
16929;DHT22;8581;47.334;11.190;2022-08-03T15:58:28;42.10;57.80
16929;DHT22;8581;47.334;11.190;2022-08-03T16:01:00;41.00;59.80
16929;DHT22;8581;47.334;11.190;2022-08-03T16:03:32;41.20;60.30
16929;DHT22;8581;47.334;11.190;2022-08-03T16:06:05;40.80;61.60
16929;DHT22;8581;47.334;11.190;2022-08-03T16:08:36;41.10;60.20
16929;DHT22;8581;47.334;11.190;2022-08-03T16:11:07;41.20;60.10